sensor_id;sensor_type;location;lat;lon;timestamp;temperature;humidity
8860;DHT22;4466;50.948;4.832;2023-11-19T00:00:16;13.60;99.90
8860;DHT22;4466;50.948;4.832;2023-11-19T00:02:42;13.60;99.90
8860;DHT22;4466;50.948;4.832;2023-11-19T00:05:08;13.70;99.90
8860;DHT22;4466;50.948;4.832;2023-11-19T00:07:40;13.70;99.90
8860;DHT22;4466;50.948;4.832;2023-11-19T00:10:08;13.70;99.90
8860;DHT22;4466;50.948;4.832;2023-11-19T00:12:37;13.70;99.90
8860;DHT22;4466;50.948;4.832;2023-11-19T00:15:04;13.70;99.90
8860;DHT22;4466;50.948;4.832;2023-11-19T00:17:30;13.70;99.90
8860;DHT22;4466;50.948;4.832;2023-11-19T00:19:55;13.70;99.90
8860;DHT22;4466;50.948;4.832;2023-11-19T00:22:21;13.70;99.90
8860;DHT22;4466;50.948;4.832;2023-11-19T00:24:47;13.70;99.90
8860;DHT22;4466;50.948;4.832;2023-11-19T00:27:13;13.70;99.90
8860;DHT22;4466;50.948;4.832;2023-11-19T00:29:38;13.70;99.90
8860;DHT22;4466;50.948;4.832;2023-11-19T00:32:04;13.80;99.90
8860;DHT22;4466;50.948;4.832;2023-11-19T00:34:31;13.70;99.90
8860;DHT22;4466;50.948;4.832;2023-11-19T00:36:57;13.70;99.90
8860;DHT22;4466;50.948;4.832;2023-11-19T00:39:25;13.70;99.90
8860;DHT22;4466;50.948;4.832;2023-11-19T00:41:51;13.70;99.90
8860;DHT22;4466;50.948;4.832;2023-11-19T00:44:17;13.80;99.90
8860;DHT22;4466;50.948;4.832;2023-11-19T00:46:43;13.80;99.90
8860;DHT22;4466;50.948;4.832;2023-11-19T00:49:09;13.80;99.90
8860;DHT22;4466;50.948;4.832;2023-11-19T00:51:37;13.80;99.90
8860;DHT22;4466;50.948;4.832;2023-11-19T00:54:03;13.80;99.90
8860;DHT22;4466;50.948;4.832;2023-11-19T00:56:29;13.80;99.90
8860;DHT22;4466;50.948;4.832;2023-11-19T00:58:55;13.90;99.90
8860;DHT22;4466;50.948;4.832;2023-11-19T01:01:21;13.90;99.90
8860;DHT22;4466;50.948;4.832;2023-11-19T01:03:47;13.90;99.90
8860;DHT22;4466;50.948;4.832;2023-11-19T01:06:12;13.90;99.90
8860;DHT22;4466;50.948;4.832;2023-11-19T01:08:39;13.90;99.90
8860;DHT22;4466;50.948;4.832;2023-11-19T01:11:05;13.90;99.90
8860;DHT22;4466;50.948;4.832;2023-11-19T01:13:30;13.90;99.90
8860;DHT22;4466;50.948;4.832;2023-11-19T01:15:56;13.90;99.90
8860;DHT22;4466;50.948;4.832;2023-11-19T01:18:22;13.90;99.90
8860;DHT22;4466;50.948;4.832;2023-11-19T01:20:47;13.90;99.90
8860;DHT22;4466;50.948;4.832;2023-11-19T01:23:13;13.90;99.90
8860;DHT22;4466;50.948;4.832;2023-11-19T01:25:39;13.90;99.90
8860;DHT22;4466;50.948;4.832;2023-11-19T01:28:04;13.90;99.90
8860;DHT22;4466;50.948;4.832;2023-11-19T01:30:30;13.90;99.90
8860;DHT22;4466;50.948;4.832;2023-11-19T01:32:56;13.90;99.90
8860;DHT22;4466;50.948;4.832;2023-11-19T01:35:21;13.90;99.90
8860;DHT22;4466;50.948;4.832;2023-11-19T01:37:48;13.90;99.90
8860;DHT22;4466;50.948;4.832;2023-11-19T01:42:51;13.90;99.90
8860;DHT22;4466;50.948;4.832;2023-11-19T01:45:27;13.90;99.90
8860;DHT22;4466;50.948;4.832;2023-11-19T01:47:53;13.80;99.90
8860;DHT22;4466;50.948;4.832;2023-11-19T01:50:20;13.90;99.90
8860;DHT22;4466;50.948;4.832;2023-11-19T01:52:46;13.90;99.90
8860;DHT22;4466;50.948;4.832;2023-11-19T01:55:12;13.90;99.90
8860;DHT22;4466;50.948;4.832;2023-11-19T01:57:38;13.90;99.90
8860;DHT22;4466;50.948;4.832;2023-11-19T02:00:07;13.80;99.90
8860;DHT22;4466;50.948;4.832;2023-11-19T02:02:37;13.80;99.90
8860;DHT22;4466;50.948;4.832;2023-11-19T02:05:03;13.80;99.90
8860;DHT22;4466;50.948;4.832;2023-11-19T02:07:29;13.70;99.90
8860;DHT22;4466;50.948;4.832;2023-11-19T02:09:54;13.70;99.90
8860;DHT22;4466;50.948;4.832;2023-11-19T02:12:20;13.70;99.90
8860;DHT22;4466;50.948;4.832;2023-11-19T02:14:46;13.70;99.90
8860;DHT22;4466;50.948;4.832;2023-11-19T02:17:28;13.60;99.90
8860;DHT22;4466;50.948;4.832;2023-11-19T02:19:54;13.60;99.90
8860;DHT22;4466;50.948;4.832;2023-11-19T02:22:19;13.60;99.90
8860;DHT22;4466;50.948;4.832;2023-11-19T02:24:47;13.50;99.90
8860;DHT22;4466;50.948;4.832;2023-11-19T02:27:24;13.60;99.90
8860;DHT22;4466;50.948;4.832;2023-11-19T02:32:28;13.40;99.90
8860;DHT22;4466;50.948;4.832;2023-11-19T02:34:56;13.40;99.90
8860;DHT22;4466;50.948;4.832;2023-11-19T02:37:21;13.30;99.90
8860;DHT22;4466;50.948;4.832;2023-11-19T02:39:47;13.30;99.90
8860;DHT22;4466;50.948;4.832;2023-11-19T02:44:48;13.30;99.90
8860;DHT22;4466;50.948;4.832;2023-11-19T02:47:14;13.30;99.90
8860;DHT22;4466;50.948;4.832;2023-11-19T02:49:39;13.30;99.90
8860;DHT22;4466;50.948;4.832;2023-11-19T02:52:05;13.30;99.90
8860;DHT22;4466;50.948;4.832;2023-11-19T02:54:31;13.30;99.90
8860;DHT22;4466;50.948;4.832;2023-11-19T02:57:00;13.30;99.90
8860;DHT22;4466;50.948;4.832;2023-11-19T02:59:27;13.30;99.90
8860;DHT22;4466;50.948;4.832;2023-11-19T03:01:54;13.30;99.90
8860;DHT22;4466;50.948;4.832;2023-11-19T03:04:20;13.30;99.90
8860;DHT22;4466;50.948;4.832;2023-11-19T03:06:46;13.30;99.90
8860;DHT22;4466;50.948;4.832;2023-11-19T03:09:12;13.30;99.90
8860;DHT22;4466;50.948;4.832;2023-11-19T03:11:38;13.30;99.90
8860;DHT22;4466;50.948;4.832;2023-11-19T03:14:04;13.20;99.90
8860;DHT22;4466;50.948;4.832;2023-11-19T03:16:29;13.20;99.90
8860;DHT22;4466;50.948;4.832;2023-11-19T03:18:55;13.10;99.90
8860;DHT22;4466;50.948;4.832;2023-11-19T03:21:30;13.10;99.90
8860;DHT22;4466;50.948;4.832;2023-11-19T03:23:59;13.00;99.90
8860;DHT22;4466;50.948;4.832;2023-11-19T03:26:28;13.00;99.90
8860;DHT22;4466;50.948;4.832;2023-11-19T03:28:53;13.00;99.90
8860;DHT22;4466;50.948;4.832;2023-11-19T03:31:20;13.10;99.90
8860;DHT22;4466;50.948;4.832;2023-11-19T03:33:45;13.10;99.90
8860;DHT22;4466;50.948;4.832;2023-11-19T03:36:12;13.10;99.90
8860;DHT22;4466;50.948;4.832;2023-11-19T03:38:38;13.10;99.90
8860;DHT22;4466;50.948;4.832;2023-11-19T03:41:30;13.10;99.90
8860;DHT22;4466;50.948;4.832;2023-11-19T03:43:56;13.00;99.90
8860;DHT22;4466;50.948;4.832;2023-11-19T03:46:22;13.00;99.90
8860;DHT22;4466;50.948;4.832;2023-11-19T03:48:50;13.00;99.90
8860;DHT22;4466;50.948;4.832;2023-11-19T03:51:16;13.00;99.90
8860;DHT22;4466;50.948;4.832;2023-11-19T03:53:43;13.00;99.90
8860;DHT22;4466;50.948;4.832;2023-11-19T03:56:10;12.90;99.90
8860;DHT22;4466;50.948;4.832;2023-11-19T03:58:36;12.80;99.90
8860;DHT22;4466;50.948;4.832;2023-11-19T04:01:04;12.80;99.90
8860;DHT22;4466;50.948;4.832;2023-11-19T04:03:29;12.70;99.90
8860;DHT22;4466;50.948;4.832;2023-11-19T04:05:55;12.70;99.90
8860;DHT22;4466;50.948;4.832;2023-11-19T04:08:21;12.70;99.90
8860;DHT22;4466;50.948;4.832;2023-11-19T04:10:47;12.70;99.90
8860;DHT22;4466;50.948;4.832;2023-11-19T04:13:13;12.70;99.90
8860;DHT22;4466;50.948;4.832;2023-11-19T04:15:39;12.70;99.90
8860;DHT22;4466;50.948;4.832;2023-11-19T04:18:05;12.60;99.90
8860;DHT22;4466;50.948;4.832;2023-11-19T04:23:06;12.60;99.90
8860;DHT22;4466;50.948;4.832;2023-11-19T04:25:37;12.60;99.90
8860;DHT22;4466;50.948;4.832;2023-11-19T04:28:03;12.60;99.90
8860;DHT22;4466;50.948;4.832;2023-11-19T04:30:30;12.60;99.90
8860;DHT22;4466;50.948;4.832;2023-11-19T04:32:57;12.60;99.90
8860;DHT22;4466;50.948;4.832;2023-11-19T04:35:23;12.60;99.90
8860;DHT22;4466;50.948;4.832;2023-11-19T04:37:49;12.60;99.90
8860;DHT22;4466;50.948;4.832;2023-11-19T04:40:14;12.70;99.90
8860;DHT22;4466;50.948;4.832;2023-11-19T04:42:40;12.80;99.90
8860;DHT22;4466;50.948;4.832;2023-11-19T04:45:12;12.80;99.90
8860;DHT22;4466;50.948;4.832;2023-11-19T04:47:38;12.80;99.90
8860;DHT22;4466;50.948;4.832;2023-11-19T04:50:04;12.90;99.90
8860;DHT22;4466;50.948;4.832;2023-11-19T04:52:30;12.90;99.90
8860;DHT22;4466;50.948;4.832;2023-11-19T04:54:56;12.90;99.90
8860;DHT22;4466;50.948;4.832;2023-11-19T04:57:21;12.90;99.90
8860;DHT22;4466;50.948;4.832;2023-11-19T04:59:47;12.90;99.90
8860;DHT22;4466;50.948;4.832;2023-11-19T05:02:12;12.90;99.90
8860;DHT22;4466;50.948;4.832;2023-11-19T05:04:42;12.80;99.90
8860;DHT22;4466;50.948;4.832;2023-11-19T05:07:09;12.70;99.90
8860;DHT22;4466;50.948;4.832;2023-11-19T05:09:35;12.70;99.90
8860;DHT22;4466;50.948;4.832;2023-11-19T05:12:00;12.60;99.90
8860;DHT22;4466;50.948;4.832;2023-11-19T05:17:02;12.60;99.90
8860;DHT22;4466;50.948;4.832;2023-11-19T05:19:28;12.60;99.90
8860;DHT22;4466;50.948;4.832;2023-11-19T05:21:54;12.50;99.90
8860;DHT22;4466;50.948;4.832;2023-11-19T05:24:19;12.50;99.90
8860;DHT22;4466;50.948;4.832;2023-11-19T05:26:45;12.50;99.90
8860;DHT22;4466;50.948;4.832;2023-11-19T05:29:10;12.40;99.90
8860;DHT22;4466;50.948;4.832;2023-11-19T05:31:36;12.40;99.90
8860;DHT22;4466;50.948;4.832;2023-11-19T05:34:03;12.40;99.90
8860;DHT22;4466;50.948;4.832;2023-11-19T05:36:29;12.30;99.90
8860;DHT22;4466;50.948;4.832;2023-11-19T05:38:55;12.30;99.90
8860;DHT22;4466;50.948;4.832;2023-11-19T05:41:20;12.30;99.90
8860;DHT22;4466;50.948;4.832;2023-11-19T05:43:46;12.20;99.90
8860;DHT22;4466;50.948;4.832;2023-11-19T05:46:12;12.20;99.90
8860;DHT22;4466;50.948;4.832;2023-11-19T05:48:38;12.10;99.90
8860;DHT22;4466;50.948;4.832;2023-11-19T05:51:04;12.10;99.90
8860;DHT22;4466;50.948;4.832;2023-11-19T05:53:31;12.00;99.90
8860;DHT22;4466;50.948;4.832;2023-11-19T05:55:57;12.00;99.90
8860;DHT22;4466;50.948;4.832;2023-11-19T05:58:27;11.90;99.90
8860;DHT22;4466;50.948;4.832;2023-11-19T06:00:55;11.90;99.90
8860;DHT22;4466;50.948;4.832;2023-11-19T06:03:21;11.90;99.90
8860;DHT22;4466;50.948;4.832;2023-11-19T06:05:48;11.90;99.90
8860;DHT22;4466;50.948;4.832;2023-11-19T06:08:14;11.90;99.90
8860;DHT22;4466;50.948;4.832;2023-11-19T06:10:44;11.90;99.90
8860;DHT22;4466;50.948;4.832;2023-11-19T06:13:14;11.90;99.90
8860;DHT22;4466;50.948;4.832;2023-11-19T06:15:43;11.90;99.90
8860;DHT22;4466;50.948;4.832;2023-11-19T06:18:09;11.80;99.90
8860;DHT22;4466;50.948;4.832;2023-11-19T06:20:37;11.90;99.90
8860;DHT22;4466;50.948;4.832;2023-11-19T06:23:02;11.90;99.90
8860;DHT22;4466;50.948;4.832;2023-11-19T06:25:28;11.90;99.90
8860;DHT22;4466;50.948;4.832;2023-11-19T06:27:54;12.00;99.90
8860;DHT22;4466;50.948;4.832;2023-11-19T06:30:19;12.00;99.90
8860;DHT22;4466;50.948;4.832;2023-11-19T06:32:46;11.90;99.90
8860;DHT22;4466;50.948;4.832;2023-11-19T06:35:12;12.00;99.90
8860;DHT22;4466;50.948;4.832;2023-11-19T06:37:39;12.00;99.90
8860;DHT22;4466;50.948;4.832;2023-11-19T06:40:06;11.90;99.90
8860;DHT22;4466;50.948;4.832;2023-11-19T06:42:32;11.90;99.90
8860;DHT22;4466;50.948;4.832;2023-11-19T06:44:58;11.90;99.90
8860;DHT22;4466;50.948;4.832;2023-11-19T06:47:27;11.90;99.90
8860;DHT22;4466;50.948;4.832;2023-11-19T06:49:53;11.90;99.90
8860;DHT22;4466;50.948;4.832;2023-11-19T06:52:19;11.90;99.90
8860;DHT22;4466;50.948;4.832;2023-11-19T06:54:45;11.90;99.90
8860;DHT22;4466;50.948;4.832;2023-11-19T06:57:11;11.80;99.90
8860;DHT22;4466;50.948;4.832;2023-11-19T06:59:37;11.80;99.90
8860;DHT22;4466;50.948;4.832;2023-11-19T07:02:03;11.80;99.90
8860;DHT22;4466;50.948;4.832;2023-11-19T07:04:31;11.80;99.90
8860;DHT22;4466;50.948;4.832;2023-11-19T07:06:57;11.80;99.90
8860;DHT22;4466;50.948;4.832;2023-11-19T07:09:22;11.70;99.90
8860;DHT22;4466;50.948;4.832;2023-11-19T07:11:49;11.70;99.90
8860;DHT22;4466;50.948;4.832;2023-11-19T07:14:17;11.70;99.90
8860;DHT22;4466;50.948;4.832;2023-11-19T07:16:43;11.70;99.90
8860;DHT22;4466;50.948;4.832;2023-11-19T07:19:09;11.70;99.90
8860;DHT22;4466;50.948;4.832;2023-11-19T07:21:41;11.70;99.90
8860;DHT22;4466;50.948;4.832;2023-11-19T07:24:09;11.70;99.90
8860;DHT22;4466;50.948;4.832;2023-11-19T07:26:36;11.70;99.90
8860;DHT22;4466;50.948;4.832;2023-11-19T07:29:02;11.80;99.90
8860;DHT22;4466;50.948;4.832;2023-11-19T07:31:28;11.80;99.90
8860;DHT22;4466;50.948;4.832;2023-11-19T07:33:54;11.70;99.90
8860;DHT22;4466;50.948;4.832;2023-11-19T07:36:19;11.70;99.90
8860;DHT22;4466;50.948;4.832;2023-11-19T07:38:46;11.70;99.90
8860;DHT22;4466;50.948;4.832;2023-11-19T07:41:13;11.70;99.90
8860;DHT22;4466;50.948;4.832;2023-11-19T07:43:39;11.80;99.90
8860;DHT22;4466;50.948;4.832;2023-11-19T07:46:11;11.80;99.90
8860;DHT22;4466;50.948;4.832;2023-11-19T07:48:38;11.80;99.90
8860;DHT22;4466;50.948;4.832;2023-11-19T07:51:04;11.80;99.90
8860;DHT22;4466;50.948;4.832;2023-11-19T07:53:30;11.90;99.90
8860;DHT22;4466;50.948;4.832;2023-11-19T07:55:55;11.90;99.90
8860;DHT22;4466;50.948;4.832;2023-11-19T07:58:21;11.90;99.90
8860;DHT22;4466;50.948;4.832;2023-11-19T08:00:47;11.90;99.90
8860;DHT22;4466;50.948;4.832;2023-11-19T08:03:12;11.90;99.90
8860;DHT22;4466;50.948;4.832;2023-11-19T08:05:38;11.90;99.90
8860;DHT22;4466;50.948;4.832;2023-11-19T08:08:04;12.00;99.90
8860;DHT22;4466;50.948;4.832;2023-11-19T08:10:30;12.00;99.90
8860;DHT22;4466;50.948;4.832;2023-11-19T08:12:55;12.00;99.90
8860;DHT22;4466;50.948;4.832;2023-11-19T08:15:21;12.10;99.90
8860;DHT22;4466;50.948;4.832;2023-11-19T08:17:47;12.10;99.90
8860;DHT22;4466;50.948;4.832;2023-11-19T08:20:12;12.20;99.90
8860;DHT22;4466;50.948;4.832;2023-11-19T08:22:38;12.30;99.90
8860;DHT22;4466;50.948;4.832;2023-11-19T08:25:08;12.30;99.90
8860;DHT22;4466;50.948;4.832;2023-11-19T08:27:33;12.30;99.90
8860;DHT22;4466;50.948;4.832;2023-11-19T08:29:59;12.30;99.90
8860;DHT22;4466;50.948;4.832;2023-11-19T08:32:25;12.40;99.90
8860;DHT22;4466;50.948;4.832;2023-11-19T08:34:51;12.40;99.90
8860;DHT22;4466;50.948;4.832;2023-11-19T08:37:17;12.40;99.90
8860;DHT22;4466;50.948;4.832;2023-11-19T08:39:47;12.40;99.90
8860;DHT22;4466;50.948;4.832;2023-11-19T08:42:16;12.50;99.90
8860;DHT22;4466;50.948;4.832;2023-11-19T08:44:43;12.50;99.90
8860;DHT22;4466;50.948;4.832;2023-11-19T08:47:11;12.50;99.90
8860;DHT22;4466;50.948;4.832;2023-11-19T08:49:38;12.50;99.90
8860;DHT22;4466;50.948;4.832;2023-11-19T08:52:04;12.50;99.90
8860;DHT22;4466;50.948;4.832;2023-11-19T08:54:30;12.60;99.90
8860;DHT22;4466;50.948;4.832;2023-11-19T08:56:56;12.70;99.90
8860;DHT22;4466;50.948;4.832;2023-11-19T08:59:21;12.80;99.90
8860;DHT22;4466;50.948;4.832;2023-11-19T09:01:47;12.80;99.90
8860;DHT22;4466;50.948;4.832;2023-11-19T09:04:12;12.80;99.90
8860;DHT22;4466;50.948;4.832;2023-11-19T09:06:39;12.80;99.90
8860;DHT22;4466;50.948;4.832;2023-11-19T09:09:05;12.90;99.90
8860;DHT22;4466;50.948;4.832;2023-11-19T09:11:31;13.00;99.90
8860;DHT22;4466;50.948;4.832;2023-11-19T09:13:57;13.00;99.90
8860;DHT22;4466;50.948;4.832;2023-11-19T09:16:23;13.00;99.90
8860;DHT22;4466;50.948;4.832;2023-11-19T09:18:49;13.10;99.90
8860;DHT22;4466;50.948;4.832;2023-11-19T09:21:15;13.10;99.90
8860;DHT22;4466;50.948;4.832;2023-11-19T09:23:41;13.20;99.90
8860;DHT22;4466;50.948;4.832;2023-11-19T09:26:08;13.10;99.90
8860;DHT22;4466;50.948;4.832;2023-11-19T09:28:35;13.10;99.90
8860;DHT22;4466;50.948;4.832;2023-11-19T09:31:01;13.00;99.90
8860;DHT22;4466;50.948;4.832;2023-11-19T09:33:30;12.80;99.90
8860;DHT22;4466;50.948;4.832;2023-11-19T09:35:56;12.70;99.90
8860;DHT22;4466;50.948;4.832;2023-11-19T09:38:21;12.70;99.90
8860;DHT22;4466;50.948;4.832;2023-11-19T09:40:47;12.70;99.90
8860;DHT22;4466;50.948;4.832;2023-11-19T09:43:15;12.70;99.90
8860;DHT22;4466;50.948;4.832;2023-11-19T09:45:50;12.70;99.90
8860;DHT22;4466;50.948;4.832;2023-11-19T09:48:19;12.80;99.90
8860;DHT22;4466;50.948;4.832;2023-11-19T09:50:48;12.80;99.90
8860;DHT22;4466;50.948;4.832;2023-11-19T09:53:15;12.90;99.90
8860;DHT22;4466;50.948;4.832;2023-11-19T09:55:41;13.00;99.90
8860;DHT22;4466;50.948;4.832;2023-11-19T10:00:42;13.20;99.90
8860;DHT22;4466;50.948;4.832;2023-11-19T10:03:11;13.20;99.90
8860;DHT22;4466;50.948;4.832;2023-11-19T10:05:40;13.30;99.90
8860;DHT22;4466;50.948;4.832;2023-11-19T10:08:07;13.40;99.90
8860;DHT22;4466;50.948;4.832;2023-11-19T10:10:39;13.60;99.90
8860;DHT22;4466;50.948;4.832;2023-11-19T10:13:05;13.70;99.90
8860;DHT22;4466;50.948;4.832;2023-11-19T10:15:40;13.80;99.90
8860;DHT22;4466;50.948;4.832;2023-11-19T10:18:07;13.90;99.90
8860;DHT22;4466;50.948;4.832;2023-11-19T10:20:42;14.00;99.90
8860;DHT22;4466;50.948;4.832;2023-11-19T10:23:10;14.10;99.90
8860;DHT22;4466;50.948;4.832;2023-11-19T10:25:36;14.00;99.90
8860;DHT22;4466;50.948;4.832;2023-11-19T10:28:03;14.00;99.90
8860;DHT22;4466;50.948;4.832;2023-11-19T10:33:14;14.10;99.90
8860;DHT22;4466;50.948;4.832;2023-11-19T10:35:53;14.20;99.90
8860;DHT22;4466;50.948;4.832;2023-11-19T10:38:40;14.10;99.90
8860;DHT22;4466;50.948;4.832;2023-11-19T10:41:09;14.10;99.90
8860;DHT22;4466;50.948;4.832;2023-11-19T10:43:44;14.00;99.90
8860;DHT22;4466;50.948;4.832;2023-11-19T10:46:16;14.00;99.90
8860;DHT22;4466;50.948;4.832;2023-11-19T10:48:46;14.00;99.90
8860;DHT22;4466;50.948;4.832;2023-11-19T10:51:18;14.00;99.90
8860;DHT22;4466;50.948;4.832;2023-11-19T10:53:49;13.90;99.90
8860;DHT22;4466;50.948;4.832;2023-11-19T10:56:29;14.00;99.90
8860;DHT22;4466;50.948;4.832;2023-11-19T10:59:02;13.90;99.90
8860;DHT22;4466;50.948;4.832;2023-11-19T11:01:44;13.90;99.90
8860;DHT22;4466;50.948;4.832;2023-11-19T11:04:23;13.90;99.90
8860;DHT22;4466;50.948;4.832;2023-11-19T11:06:50;13.80;99.90
8860;DHT22;4466;50.948;4.832;2023-11-19T11:09:16;13.70;99.90
8860;DHT22;4466;50.948;4.832;2023-11-19T11:11:47;13.60;99.90
8860;DHT22;4466;50.948;4.832;2023-11-19T11:14:13;13.60;99.90
8860;DHT22;4466;50.948;4.832;2023-11-19T11:16:46;13.50;99.90
8860;DHT22;4466;50.948;4.832;2023-11-19T11:19:15;13.50;99.90
8860;DHT22;4466;50.948;4.832;2023-11-19T11:21:44;13.60;99.90
8860;DHT22;4466;50.948;4.832;2023-11-19T11:24:18;13.70;99.90
8860;DHT22;4466;50.948;4.832;2023-11-19T11:29:30;13.90;99.90
8860;DHT22;4466;50.948;4.832;2023-11-19T11:37:46;13.80;99.90
8860;DHT22;4466;50.948;4.832;2023-11-19T11:40:17;13.80;99.90
8860;DHT22;4466;50.948;4.832;2023-11-19T11:42:44;13.80;99.90
8860;DHT22;4466;50.948;4.832;2023-11-19T11:45:11;13.80;99.90
8860;DHT22;4466;50.948;4.832;2023-11-19T11:50:19;14.00;99.90
8860;DHT22;4466;50.948;4.832;2023-11-19T11:57:57;14.20;99.90
8860;DHT22;4466;50.948;4.832;2023-11-19T12:00:31;14.10;99.90
8860;DHT22;4466;50.948;4.832;2023-11-19T12:03:00;14.00;99.90
8860;DHT22;4466;50.948;4.832;2023-11-19T12:05:27;14.00;99.90
8860;DHT22;4466;50.948;4.832;2023-11-19T12:08:04;14.10;99.90
8860;DHT22;4466;50.948;4.832;2023-11-19T12:10:46;14.10;99.90
8860;DHT22;4466;50.948;4.832;2023-11-19T12:13:16;14.10;99.90
8860;DHT22;4466;50.948;4.832;2023-11-19T12:18:27;14.30;99.90
8860;DHT22;4466;50.948;4.832;2023-11-19T12:21:00;14.40;99.90
8860;DHT22;4466;50.948;4.832;2023-11-19T12:23:46;14.30;99.90
8860;DHT22;4466;50.948;4.832;2023-11-19T12:26:41;14.30;99.90
8860;DHT22;4466;50.948;4.832;2023-11-19T12:29:07;14.30;99.90
8860;DHT22;4466;50.948;4.832;2023-11-19T12:31:53;14.30;99.90
8860;DHT22;4466;50.948;4.832;2023-11-19T12:34:21;14.30;99.90
8860;DHT22;4466;50.948;4.832;2023-11-19T12:37:07;14.30;99.90
8860;DHT22;4466;50.948;4.832;2023-11-19T12:39:35;14.30;99.90
8860;DHT22;4466;50.948;4.832;2023-11-19T12:42:01;14.20;99.90
8860;DHT22;4466;50.948;4.832;2023-11-19T12:44:32;14.20;99.90
8860;DHT22;4466;50.948;4.832;2023-11-19T12:47:12;14.20;99.90
8860;DHT22;4466;50.948;4.832;2023-11-19T12:49:40;14.10;99.90
8860;DHT22;4466;50.948;4.832;2023-11-19T12:52:12;13.90;99.90
8860;DHT22;4466;50.948;4.832;2023-11-19T12:54:51;13.90;99.90
8860;DHT22;4466;50.948;4.832;2023-11-19T13:07:40;14.10;99.90
8860;DHT22;4466;50.948;4.832;2023-11-19T13:10:17;14.20;99.90
8860;DHT22;4466;50.948;4.832;2023-11-19T13:13:02;14.20;99.90
8860;DHT22;4466;50.948;4.832;2023-11-19T13:15:33;14.10;99.90
8860;DHT22;4466;50.948;4.832;2023-11-19T13:18:19;14.10;99.90
8860;DHT22;4466;50.948;4.832;2023-11-19T13:20:57;14.00;99.90
8860;DHT22;4466;50.948;4.832;2023-11-19T13:23:38;13.80;99.90
8860;DHT22;4466;50.948;4.832;2023-11-19T13:26:06;13.70;99.90
8860;DHT22;4466;50.948;4.832;2023-11-19T13:28:41;13.70;99.90
8860;DHT22;4466;50.948;4.832;2023-11-19T13:31:07;13.70;99.90
8860;DHT22;4466;50.948;4.832;2023-11-19T13:33:42;13.70;99.90
8860;DHT22;4466;50.948;4.832;2023-11-19T13:36:08;13.70;99.90
8860;DHT22;4466;50.948;4.832;2023-11-19T13:49:04;13.60;99.90
8860;DHT22;4466;50.948;4.832;2023-11-19T13:51:31;13.60;99.90
8860;DHT22;4466;50.948;4.832;2023-11-19T13:54:00;13.70;99.90
8860;DHT22;4466;50.948;4.832;2023-11-19T13:56:28;13.80;99.90
8860;DHT22;4466;50.948;4.832;2023-11-19T13:58:57;13.90;99.90
8860;DHT22;4466;50.948;4.832;2023-11-19T14:01:32;13.90;99.90
8860;DHT22;4466;50.948;4.832;2023-11-19T14:04:09;13.90;99.90
8860;DHT22;4466;50.948;4.832;2023-11-19T14:06:47;13.70;99.90
8860;DHT22;4466;50.948;4.832;2023-11-19T14:09:22;13.70;99.90
8860;DHT22;4466;50.948;4.832;2023-11-19T14:11:51;13.70;99.90
8860;DHT22;4466;50.948;4.832;2023-11-19T14:14:22;13.60;99.90
8860;DHT22;4466;50.948;4.832;2023-11-19T14:16:51;13.50;99.90
8860;DHT22;4466;50.948;4.832;2023-11-19T14:19:30;13.50;99.90
8860;DHT22;4466;50.948;4.832;2023-11-19T14:22:02;13.50;99.90
8860;DHT22;4466;50.948;4.832;2023-11-19T14:27:03;13.30;99.90
8860;DHT22;4466;50.948;4.832;2023-11-19T14:29:29;13.30;99.90
8860;DHT22;4466;50.948;4.832;2023-11-19T14:31:56;13.30;99.90
8860;DHT22;4466;50.948;4.832;2023-11-19T14:34:22;13.40;99.90
8860;DHT22;4466;50.948;4.832;2023-11-19T14:36:48;13.30;99.90
8860;DHT22;4466;50.948;4.832;2023-11-19T14:39:14;13.30;99.90
8860;DHT22;4466;50.948;4.832;2023-11-19T14:41:40;13.30;99.90
8860;DHT22;4466;50.948;4.832;2023-11-19T14:44:06;13.30;99.90
8860;DHT22;4466;50.948;4.832;2023-11-19T14:46:32;13.20;99.90
8860;DHT22;4466;50.948;4.832;2023-11-19T14:48:57;13.20;99.90
8860;DHT22;4466;50.948;4.832;2023-11-19T14:51:23;13.20;99.90
8860;DHT22;4466;50.948;4.832;2023-11-19T14:53:48;13.20;99.90
8860;DHT22;4466;50.948;4.832;2023-11-19T14:58:45;13.00;99.90
8860;DHT22;4466;50.948;4.832;2023-11-19T15:01:14;13.00;99.90
8860;DHT22;4466;50.948;4.832;2023-11-19T15:03:40;12.90;99.90
8860;DHT22;4466;50.948;4.832;2023-11-19T15:06:06;12.90;99.90
8860;DHT22;4466;50.948;4.832;2023-11-19T15:08:33;12.90;99.90
8860;DHT22;4466;50.948;4.832;2023-11-19T15:10:58;12.90;99.90
8860;DHT22;4466;50.948;4.832;2023-11-19T15:13:25;12.90;99.90
8860;DHT22;4466;50.948;4.832;2023-11-19T15:15:50;12.90;99.90
8860;DHT22;4466;50.948;4.832;2023-11-19T15:18:18;12.90;99.90
8860;DHT22;4466;50.948;4.832;2023-11-19T15:20:44;12.90;99.90
8860;DHT22;4466;50.948;4.832;2023-11-19T15:23:13;12.90;99.90
8860;DHT22;4466;50.948;4.832;2023-11-19T15:25:38;12.90;99.90
8860;DHT22;4466;50.948;4.832;2023-11-19T15:28:04;12.90;99.90
8860;DHT22;4466;50.948;4.832;2023-11-19T15:30:30;13.00;99.90
8860;DHT22;4466;50.948;4.832;2023-11-19T15:32:55;12.90;99.90
8860;DHT22;4466;50.948;4.832;2023-11-19T15:35:21;13.00;99.90
8860;DHT22;4466;50.948;4.832;2023-11-19T15:37:47;12.90;99.90
8860;DHT22;4466;50.948;4.832;2023-11-19T15:40:13;13.00;99.90
8860;DHT22;4466;50.948;4.832;2023-11-19T15:42:40;13.00;99.90
8860;DHT22;4466;50.948;4.832;2023-11-19T15:45:06;12.90;99.90
8860;DHT22;4466;50.948;4.832;2023-11-19T15:47:33;12.90;99.90
8860;DHT22;4466;50.948;4.832;2023-11-19T15:50:01;12.90;99.90
8860;DHT22;4466;50.948;4.832;2023-11-19T15:52:26;12.90;99.90
8860;DHT22;4466;50.948;4.832;2023-11-19T15:58:19;12.90;99.90
8860;DHT22;4466;50.948;4.832;2023-11-19T16:00:45;13.00;99.90
8860;DHT22;4466;50.948;4.832;2023-11-19T16:03:13;13.00;99.90
8860;DHT22;4466;50.948;4.832;2023-11-19T16:05:39;13.00;99.90
8860;DHT22;4466;50.948;4.832;2023-11-19T16:08:05;13.00;99.90
8860;DHT22;4466;50.948;4.832;2023-11-19T16:10:31;13.00;99.90
8860;DHT22;4466;50.948;4.832;2023-11-19T16:12:57;13.10;99.90
8860;DHT22;4466;50.948;4.832;2023-11-19T16:15:22;13.20;99.90
8860;DHT22;4466;50.948;4.832;2023-11-19T16:17:48;13.20;99.90
8860;DHT22;4466;50.948;4.832;2023-11-19T16:20:14;13.20;99.90
8860;DHT22;4466;50.948;4.832;2023-11-19T16:22:40;13.20;99.90
8860;DHT22;4466;50.948;4.832;2023-11-19T16:25:08;13.20;99.90
8860;DHT22;4466;50.948;4.832;2023-11-19T16:27:34;13.20;99.90
8860;DHT22;4466;50.948;4.832;2023-11-19T16:32:29;13.20;99.90
8860;DHT22;4466;50.948;4.832;2023-11-19T16:34:54;13.20;99.90
8860;DHT22;4466;50.948;4.832;2023-11-19T16:37:22;13.10;99.90
8860;DHT22;4466;50.948;4.832;2023-11-19T16:39:47;13.00;99.90
8860;DHT22;4466;50.948;4.832;2023-11-19T16:42:13;12.90;99.90
8860;DHT22;4466;50.948;4.832;2023-11-19T16:44:39;12.80;99.90
8860;DHT22;4466;50.948;4.832;2023-11-19T16:47:06;12.70;99.90
8860;DHT22;4466;50.948;4.832;2023-11-19T16:49:34;12.70;99.90
8860;DHT22;4466;50.948;4.832;2023-11-19T16:52:00;12.60;99.90
8860;DHT22;4466;50.948;4.832;2023-11-19T16:54:28;12.60;99.90
8860;DHT22;4466;50.948;4.832;2023-11-19T16:56:54;12.60;99.90
8860;DHT22;4466;50.948;4.832;2023-11-19T16:59:19;12.50;99.90
8860;DHT22;4466;50.948;4.832;2023-11-19T17:01:45;12.50;99.90
8860;DHT22;4466;50.948;4.832;2023-11-19T17:04:12;12.50;99.90
8860;DHT22;4466;50.948;4.832;2023-11-19T17:06:38;12.40;99.90
8860;DHT22;4466;50.948;4.832;2023-11-19T17:09:04;12.40;99.90
8860;DHT22;4466;50.948;4.832;2023-11-19T17:11:30;12.40;99.90
8860;DHT22;4466;50.948;4.832;2023-11-19T17:13:56;12.40;99.90